sensor_id;sensor_type;location;lat;lon;timestamp;pressure;altitude;pressure_sealevel;temperature;humidity
76337;BME280;65157;50.082;18.178;2022-12-07T00:01:20;98861.93;;;2.64;85.16
76337;BME280;65157;50.082;18.178;2022-12-07T00:03:49;98860.92;;;2.61;85.31
76337;BME280;65157;50.082;18.178;2022-12-07T00:09:33;98865.63;;;2.61;85.52
76337;BME280;65157;50.082;18.178;2022-12-07T00:11:59;98863.69;;;2.63;85.52
76337;BME280;65157;50.082;18.178;2022-12-07T00:14:26;98858.11;;;2.63;85.49
76337;BME280;65157;50.082;18.178;2022-12-07T00:16:52;98855.33;;;2.62;85.46
76337;BME280;65157;50.082;18.178;2022-12-07T00:19:19;98857.06;;;2.63;85.45
76337;BME280;65157;50.082;18.178;2022-12-07T00:21:45;98857.21;;;2.65;85.48
76337;BME280;65157;50.082;18.178;2022-12-07T00:24:12;98857.68;;;2.67;85.32
76337;BME280;65157;50.082;18.178;2022-12-07T00:26:40;98854.86;;;2.70;85.49
76337;BME280;65157;50.082;18.178;2022-12-07T00:29:19;98850.48;;;2.71;85.37
76337;BME280;65157;50.082;18.178;2022-12-07T00:31:46;98847.34;;;2.71;85.28
76337;BME280;65157;50.082;18.178;2022-12-07T00:34:20;98844.00;;;2.73;85.47
76337;BME280;65157;50.082;18.178;2022-12-07T00:36:48;98842.37;;;2.77;85.28
76337;BME280;65157;50.082;18.178;2022-12-07T00:39:16;98843.71;;;2.79;85.09
76337;BME280;65157;50.082;18.178;2022-12-07T00:41:42;98841.96;;;2.79;85.15
76337;BME280;65157;50.082;18.178;2022-12-07T00:44:09;98837.14;;;2.85;85.37
76337;BME280;65157;50.082;18.178;2022-12-07T00:46:36;98834.98;;;2.90;85.17
76337;BME280;65157;50.082;18.178;2022-12-07T00:49:02;98838.48;;;2.90;85.14
76337;BME280;65157;50.082;18.178;2022-12-07T00:51:29;98834.30;;;2.89;85.09
76337;BME280;65157;50.082;18.178;2022-12-07T00:53:56;98833.97;;;2.88;84.85
76337;BME280;65157;50.082;18.178;2022-12-07T00:56:25;98832.96;;;2.86;85.06
76337;BME280;65157;50.082;18.178;2022-12-07T00:58:59;98836.56;;;2.89;85.03
76337;BME280;65157;50.082;18.178;2022-12-07T01:01:29;98841.98;;;2.88;84.97
76337;BME280;65157;50.082;18.178;2022-12-07T01:03:56;98839.57;;;2.87;84.88
76337;BME280;65157;50.082;18.178;2022-12-07T01:06:23;98840.63;;;2.86;85.12
76337;BME280;65157;50.082;18.178;2022-12-07T01:08:51;98844.67;;;2.84;85.00
76337;BME280;65157;50.082;18.178;2022-12-07T01:11:20;98851.98;;;2.84;85.02
76337;BME280;65157;50.082;18.178;2022-12-07T01:13:46;98845.01;;;2.84;84.86
76337;BME280;65157;50.082;18.178;2022-12-07T01:16:15;98842.20;;;2.85;85.06
76337;BME280;65157;50.082;18.178;2022-12-07T01:18:46;98839.73;;;2.88;84.93
76337;BME280;65157;50.082;18.178;2022-12-07T01:21:19;98838.99;;;2.90;84.80
76337;BME280;65157;50.082;18.178;2022-12-07T01:23:47;98833.94;;;2.90;85.08
76337;BME280;65157;50.082;18.178;2022-12-07T01:26:16;98832.21;;;2.89;84.96
76337;BME280;65157;50.082;18.178;2022-12-07T01:28:44;98832.58;;;2.88;84.87
76337;BME280;65157;50.082;18.178;2022-12-07T01:31:18;98831.56;;;2.86;85.16
76337;BME280;65157;50.082;18.178;2022-12-07T01:33:51;98829.48;;;2.86;85.00
76337;BME280;65157;50.082;18.178;2022-12-07T01:36:26;98828.70;;;2.90;84.89
76337;BME280;65157;50.082;18.178;2022-12-07T01:38:56;98828.83;;;2.94;85.08
76337;BME280;65157;50.082;18.178;2022-12-07T01:41:25;98827.39;;;2.96;84.87
76337;BME280;65157;50.082;18.178;2022-12-07T01:47:09;98825.02;;;2.91;84.98
76337;BME280;65157;50.082;18.178;2022-12-07T01:49:44;98829.69;;;2.84;85.12
76337;BME280;65157;50.082;18.178;2022-12-07T01:52:21;98826.70;;;2.84;85.22
76337;BME280;65157;50.082;18.178;2022-12-07T01:54:52;98826.69;;;2.86;84.92
76337;BME280;65157;50.082;18.178;2022-12-07T01:57:20;98825.98;;;2.87;84.81
76337;BME280;65157;50.082;18.178;2022-12-07T01:59:49;98826.12;;;2.89;85.14
76337;BME280;65157;50.082;18.178;2022-12-07T02:02:24;98829.95;;;2.90;85.21
76337;BME280;65157;50.082;18.178;2022-12-07T02:04:53;98833.77;;;2.90;85.26
76337;BME280;65157;50.082;18.178;2022-12-07T02:07:23;98835.41;;;2.86;85.36
76337;BME280;65157;50.082;18.178;2022-12-07T02:09:50;98831.36;;;2.78;85.39
76337;BME280;65157;50.082;18.178;2022-12-07T02:12:17;98831.64;;;2.72;85.47
76337;BME280;65157;50.082;18.178;2022-12-07T02:14:44;98832.44;;;2.66;85.64
76337;BME280;65157;50.082;18.178;2022-12-07T02:17:38;98831.41;;;2.65;85.77
76337;BME280;65157;50.082;18.178;2022-12-07T02:23:40;98829.36;;;2.73;85.91
76337;BME280;65157;50.082;18.178;2022-12-07T02:31:52;98832.98;;;2.75;85.80
76337;BME280;65157;50.082;18.178;2022-12-07T02:34:32;98837.11;;;2.68;85.75
76337;BME280;65157;50.082;18.178;2022-12-07T02:37:07;98841.39;;;2.63;85.95
76337;BME280;65157;50.082;18.178;2022-12-07T02:39:57;98836.21;;;2.59;86.05
76337;BME280;65157;50.082;18.178;2022-12-07T02:42:34;98832.42;;;2.57;86.16
76337;BME280;65157;50.082;18.178;2022-12-07T02:45:03;98826.25;;;2.61;86.18
76337;BME280;65157;50.082;18.178;2022-12-07T02:47:31;98826.67;;;2.67;86.22
76337;BME280;65157;50.082;18.178;2022-12-07T02:49:59;98823.83;;;2.71;86.14
76337;BME280;65157;50.082;18.178;2022-12-07T02:52:28;98826.16;;;2.67;85.87
76337;BME280;65157;50.082;18.178;2022-12-07T02:54:55;98826.30;;;2.68;86.18
76337;BME280;65157;50.082;18.178;2022-12-07T03:00:19;98829.86;;;2.74;85.85
76337;BME280;65157;50.082;18.178;2022-12-07T03:06:16;98826.49;;;2.77;85.76
76337;BME280;65157;50.082;18.178;2022-12-07T03:08:52;98819.85;;;2.78;85.80
76337;BME280;65157;50.082;18.178;2022-12-07T03:11:25;98815.88;;;2.76;85.69
76337;BME280;65157;50.082;18.178;2022-12-07T03:14:13;98819.36;;;2.77;85.59
76337;BME280;65157;50.082;18.178;2022-12-07T03:17:00;98815.51;;;2.78;85.77
76337;BME280;65157;50.082;18.178;2022-12-07T03:19:31;98819.65;;;2.80;85.78
76337;BME280;65157;50.082;18.178;2022-12-07T03:22:03;98817.45;;;2.76;85.66
76337;BME280;65157;50.082;18.178;2022-12-07T03:24:52;98814.36;;;2.73;85.44
76337;BME280;65157;50.082;18.178;2022-12-07T03:27:38;98814.05;;;2.72;85.55
76337;BME280;65157;50.082;18.178;2022-12-07T03:30:08;98815.34;;;2.68;85.50
76337;BME280;65157;50.082;18.178;2022-12-07T03:32:37;98814.37;;;2.64;85.57
76337;BME280;65157;50.082;18.178;2022-12-07T03:35:55;98811.38;;;2.64;85.94
76337;BME280;65157;50.082;18.178;2022-12-07T03:40:48;98812.23;;;2.66;85.53
76337;BME280;65157;50.082;18.178;2022-12-07T03:43:18;98812.39;;;2.67;85.47
76337;BME280;65157;50.082;18.178;2022-12-07T03:48:55;98815.73;;;2.64;85.46
76337;BME280;65157;50.082;18.178;2022-12-07T03:51:28;98815.21;;;2.64;85.52
76337;BME280;65157;50.082;18.178;2022-12-07T03:54:05;98815.23;;;2.64;85.60
76337;BME280;65157;50.082;18.178;2022-12-07T03:56:35;98816.13;;;2.63;85.41
76337;BME280;65157;50.082;18.178;2022-12-07T03:59:02;98812.74;;;2.67;85.50
76337;BME280;65157;50.082;18.178;2022-12-07T04:01:28;98816.31;;;2.72;85.50
76337;BME280;65157;50.082;18.178;2022-12-07T04:03:55;98824.63;;;2.75;85.62
76337;BME280;65157;50.082;18.178;2022-12-07T04:06:21;98825.88;;;2.73;85.36
76337;BME280;65157;50.082;18.178;2022-12-07T04:08:48;98826.44;;;2.70;85.53
76337;BME280;65157;50.082;18.178;2022-12-07T04:11:15;98826.47;;;2.70;85.43
76337;BME280;65157;50.082;18.178;2022-12-07T04:13:41;98824.60;;;2.66;85.33
76337;BME280;65157;50.082;18.178;2022-12-07T04:16:26;98820.64;;;2.64;85.30
76337;BME280;65157;50.082;18.178;2022-12-07T04:18:53;98824.91;;;2.59;85.48
76337;BME280;65157;50.082;18.178;2022-12-07T04:21:19;98822.70;;;2.56;85.38
76337;BME280;65157;50.082;18.178;2022-12-07T04:23:46;98821.51;;;2.54;85.54
76337;BME280;65157;50.082;18.178;2022-12-07T04:26:12;98816.75;;;2.56;85.66
76337;BME280;65157;50.082;18.178;2022-12-07T04:28:39;98817.80;;;2.57;85.49
76337;BME280;65157;50.082;18.178;2022-12-07T04:31:06;98817.20;;;2.60;85.47
76337;BME280;65157;50.082;18.178;2022-12-07T04:33:32;98818.52;;;2.64;85.38
76337;BME280;65157;50.082;18.178;2022-12-07T04:35:59;98815.52;;;2.68;85.34
76337;BME280;65157;50.082;18.178;2022-12-07T04:38:25;98813.41;;;2.68;85.43
76337;BME280;65157;50.082;18.178;2022-12-07T04:40:52;98814.27;;;2.69;85.37
76337;BME280;65157;50.082;18.178;2022-12-07T04:43:18;98813.06;;;2.69;85.29
76337;BME280;65157;50.082;18.178;2022-12-07T04:45:48;98813.10;;;2.66;85.45
76337;BME280;65157;50.082;18.178;2022-12-07T04:48:15;98818.14;;;2.66;85.57
76337;BME280;65157;50.082;18.178;2022-12-07T04:50:42;98820.40;;;2.68;85.42
76337;BME280;65157;50.082;18.178;2022-12-07T04:53:08;98820.38;;;2.68;85.24
76337;BME280;65157;50.082;18.178;2022-12-07T04:55:35;98816.38;;;2.69;85.46
76337;BME280;65157;50.082;18.178;2022-12-07T04:58:02;98818.13;;;2.68;85.34
76337;BME280;65157;50.082;18.178;2022-12-07T05:00:28;98817.42;;;2.68;85.32
76337;BME280;65157;50.082;18.178;2022-12-07T05:02:55;98819.93;;;2.64;85.40
76337;BME280;65157;50.082;18.178;2022-12-07T05:05:22;98819.14;;;2.60;85.29
76337;BME280;65157;50.082;18.178;2022-12-07T05:07:48;98814.95;;;2.60;85.47
76337;BME280;65157;50.082;18.178;2022-12-07T05:10:15;98819.78;;;2.62;85.36
76337;BME280;65157;50.082;18.178;2022-12-07T05:12:41;98824.64;;;2.64;85.30
76337;BME280;65157;50.082;18.178;2022-12-07T05:15:08;98825.35;;;2.64;85.22
76337;BME280;65157;50.082;18.178;2022-12-07T05:17:35;98831.51;;;2.70;85.43
76337;BME280;65157;50.082;18.178;2022-12-07T05:20:02;98836.90;;;2.70;85.10
76337;BME280;65157;50.082;18.178;2022-12-07T05:22:28;98837.24;;;2.60;85.22
76337;BME280;65157;50.082;18.178;2022-12-07T05:24:55;98826.16;;;2.46;85.35
76337;BME280;65157;50.082;18.178;2022-12-07T05:27:22;98821.09;;;2.37;85.29
76337;BME280;65157;50.082;18.178;2022-12-07T05:29:52;98822.60;;;2.40;85.44
76337;BME280;65157;50.082;18.178;2022-12-07T05:32:18;98825.86;;;2.44;85.42
76337;BME280;65157;50.082;18.178;2022-12-07T05:34:45;98824.27;;;2.45;85.44
76337;BME280;65157;50.082;18.178;2022-12-07T05:37:12;98825.84;;;2.45;85.40
76337;BME280;65157;50.082;18.178;2022-12-07T05:39:38;98828.65;;;2.44;85.46
76337;BME280;65157;50.082;18.178;2022-12-07T05:42:08;98831.23;;;2.45;85.45
76337;BME280;65157;50.082;18.178;2022-12-07T05:44:41;98833.35;;;2.43;85.40
76337;BME280;65157;50.082;18.178;2022-12-07T05:47:08;98834.63;;;2.40;85.37
76337;BME280;65157;50.082;18.178;2022-12-07T05:49:35;98831.67;;;2.40;85.51
76337;BME280;65157;50.082;18.178;2022-12-07T05:52:02;98834.19;;;2.35;85.44
76337;BME280;65157;50.082;18.178;2022-12-07T05:54:29;98834.01;;;2.35;85.44
76337;BME280;65157;50.082;18.178;2022-12-07T05:56:55;98837.58;;;2.30;85.58
76337;BME280;65157;50.082;18.178;2022-12-07T05:59:22;98837.12;;;2.25;85.49
76337;BME280;65157;50.082;18.178;2022-12-07T06:04:17;98836.91;;;2.28;85.88
76337;BME280;65157;50.082;18.178;2022-12-07T06:06:43;98837.39;;;2.31;85.82
76337;BME280;65157;50.082;18.178;2022-12-07T06:09:10;98839.00;;;2.28;85.77
76337;BME280;65157;50.082;18.178;2022-12-07T06:11:39;98842.70;;;2.24;85.87
76337;BME280;65157;50.082;18.178;2022-12-07T06:14:25;98845.84;;;2.25;86.00
76337;BME280;65157;50.082;18.178;2022-12-07T06:16:51;98846.30;;;2.28;85.89
76337;BME280;65157;50.082;18.178;2022-12-07T06:19:18;98842.87;;;2.26;85.88
76337;BME280;65157;50.082;18.178;2022-12-07T06:21:44;98839.57;;;2.24;85.93
76337;BME280;65157;50.082;18.178;2022-12-07T06:24:12;98842.33;;;2.26;85.99
76337;BME280;65157;50.082;18.178;2022-12-07T06:26:40;98841.24;;;2.29;86.00
76337;BME280;65157;50.082;18.178;2022-12-07T06:29:06;98841.16;;;2.35;85.89
76337;BME280;65157;50.082;18.178;2022-12-07T06:31:33;98845.98;;;2.38;85.71
76337;BME280;65157;50.082;18.178;2022-12-07T06:34:05;98844.66;;;2.34;85.84
76337;BME280;65157;50.082;18.178;2022-12-07T06:36:32;98847.12;;;2.32;85.88
76337;BME280;65157;50.082;18.178;2022-12-07T06:38:58;98847.27;;;2.33;85.96
76337;BME280;65157;50.082;18.178;2022-12-07T06:41:25;98845.55;;;2.33;85.98
76337;BME280;65157;50.082;18.178;2022-12-07T06:43:52;98847.29;;;2.32;85.86
76337;BME280;65157;50.082;18.178;2022-12-07T06:46:18;98845.48;;;2.35;85.79
76337;BME280;65157;50.082;18.178;2022-12-07T06:48:45;98847.68;;;2.40;85.97
76337;BME280;65157;50.082;18.178;2022-12-07T06:51:12;98846.73;;;2.45;85.70
76337;BME280;65157;50.082;18.178;2022-12-07T06:53:38;98847.21;;;2.47;85.71
76337;BME280;65157;50.082;18.178;2022-12-07T06:56:05;98849.52;;;2.46;85.69
76337;BME280;65157;50.082;18.178;2022-12-07T06:58:32;98851.48;;;2.43;85.66
76337;BME280;65157;50.082;18.178;2022-12-07T07:00:58;98849.25;;;2.40;85.77
76337;BME280;65157;50.082;18.178;2022-12-07T07:03:25;98847.18;;;2.39;85.75
76337;BME280;65157;50.082;18.178;2022-12-07T07:05:51;98843.39;;;2.37;85.79
76337;BME280;65157;50.082;18.178;2022-12-07T07:08:18;98849.99;;;2.38;86.10
76337;BME280;65157;50.082;18.178;2022-12-07T07:10:45;98841.83;;;2.37;85.86
76337;BME280;65157;50.082;18.178;2022-12-07T07:13:12;98838.16;;;2.38;86.03
76337;BME280;65157;50.082;18.178;2022-12-07T07:15:39;98837.59;;;2.40;86.06
76337;BME280;65157;50.082;18.178;2022-12-07T07:18:06;98835.64;;;2.42;85.85
76337;BME280;65157;50.082;18.178;2022-12-07T07:20:33;98834.40;;;2.44;86.04
76337;BME280;65157;50.082;18.178;2022-12-07T07:22:59;98835.18;;;2.49;85.78
76337;BME280;65157;50.082;18.178;2022-12-07T07:25:26;98833.70;;;2.53;85.75
76337;BME280;65157;50.082;18.178;2022-12-07T07:27:52;98836.30;;;2.55;85.99
76337;BME280;65157;50.082;18.178;2022-12-07T07:30:19;98831.42;;;2.55;85.93
76337;BME280;65157;50.082;18.178;2022-12-07T07:32:46;98833.30;;;2.57;85.81
76337;BME280;65157;50.082;18.178;2022-12-07T07:35:13;98837.37;;;2.63;86.01
76337;BME280;65157;50.082;18.178;2022-12-07T07:37:41;98838.31;;;2.68;85.90
76337;BME280;65157;50.082;18.178;2022-12-07T07:40:09;98838.79;;;2.72;85.84
76337;BME280;65157;50.082;18.178;2022-12-07T07:42:36;98841.00;;;2.75;86.01
76337;BME280;65157;50.082;18.178;2022-12-07T07:45:02;98839.92;;;2.76;85.72
76337;BME280;65157;50.082;18.178;2022-12-07T07:47:29;98840.42;;;2.78;85.74
76337;BME280;65157;50.082;18.178;2022-12-07T07:49:56;98840.92;;;2.79;85.57
76337;BME280;65157;50.082;18.178;2022-12-07T07:52:23;98845.08;;;2.81;85.40
76337;BME280;65157;50.082;18.178;2022-12-07T07:54:50;98844.83;;;2.75;85.58
76337;BME280;65157;50.082;18.178;2022-12-07T07:57:16;98856.30;;;2.77;85.77
76337;BME280;65157;50.082;18.178;2022-12-07T07:59:43;98855.47;;;2.75;85.80
76337;BME280;65157;50.082;18.178;2022-12-07T08:02:15;98859.95;;;2.77;85.91
76337;BME280;65157;50.082;18.178;2022-12-07T08:04:42;98859.71;;;2.71;85.61
76337;BME280;65157;50.082;18.178;2022-12-07T08:07:08;98857.01;;;2.67;85.78
76337;BME280;65157;50.082;18.178;2022-12-07T08:09:35;98857.85;;;2.68;85.77
76337;BME280;65157;50.082;18.178;2022-12-07T08:12:02;98858.86;;;2.69;85.73
76337;BME280;65157;50.082;18.178;2022-12-07T08:14:28;98855.17;;;2.71;85.60
76337;BME280;65157;50.082;18.178;2022-12-07T08:16:55;98861.62;;;2.71;85.63
76337;BME280;65157;50.082;18.178;2022-12-07T08:19:22;98863.57;;;2.69;85.62
76337;BME280;65157;50.082;18.178;2022-12-07T08:21:49;98866.41;;;2.66;85.60
76337;BME280;65157;50.082;18.178;2022-12-07T08:24:15;98866.77;;;2.67;85.56
76337;BME280;65157;50.082;18.178;2022-12-07T08:26:42;98867.95;;;2.68;85.66
76337;BME280;65157;50.082;18.178;2022-12-07T08:29:09;98863.88;;;2.72;85.74
76337;BME280;65157;50.082;18.178;2022-12-07T08:31:35;98865.82;;;2.80;85.59
76337;BME280;65157;50.082;18.178;2022-12-07T08:34:02;98864.34;;;2.85;85.60
76337;BME280;65157;50.082;18.178;2022-12-07T08:36:29;98862.08;;;2.87;85.72
76337;BME280;65157;50.082;18.178;2022-12-07T08:38:55;98862.94;;;2.86;85.74
76337;BME280;65157;50.082;18.178;2022-12-07T08:41:22;98862.42;;;2.86;85.83
76337;BME280;65157;50.082;18.178;2022-12-07T08:43:49;98860.79;;;2.89;85.74
76337;BME280;65157;50.082;18.178;2022-12-07T08:48:53;98856.25;;;2.99;85.62
76337;BME280;65157;50.082;18.178;2022-12-07T08:51:22;98858.63;;;3.02;85.50
76337;BME280;65157;50.082;18.178;2022-12-07T08:53:49;98854.83;;;3.01;85.58
76337;BME280;65157;50.082;18.178;2022-12-07T08:56:17;98852.87;;;3.03;85.41
76337;BME280;65157;50.082;18.178;2022-12-07T08:58:44;98852.88;;;3.03;85.32
76337;BME280;65157;50.082;18.178;2022-12-07T09:01:11;98853.59;;;3.02;85.42
76337;BME280;65157;50.082;18.178;2022-12-07T09:03:38;98855.42;;;3.06;85.42
76337;BME280;65157;50.082;18.178;2022-12-07T09:06:04;98851.69;;;3.10;85.21
76337;BME280;65157;50.082;18.178;2022-12-07T09:08:35;98844.79;;;3.16;85.19
76337;BME280;65157;50.082;18.178;2022-12-07T09:11:02;98840.86;;;3.20;85.24
76337;BME280;65157;50.082;18.178;2022-12-07T09:13:29;98838.69;;;3.24;85.23
76337;BME280;65157;50.082;18.178;2022-12-07T09:15:56;98836.90;;;3.26;85.32
76337;BME280;65157;50.082;18.178;2022-12-07T09:18:22;98833.73;;;3.29;85.36
76337;BME280;65157;50.082;18.178;2022-12-07T09:20:51;98832.77;;;3.32;85.51
76337;BME280;65157;50.082;18.178;2022-12-07T09:23:17;98831.66;;;3.36;85.23
76337;BME280;65157;50.082;18.178;2022-12-07T09:25:44;98826.21;;;3.38;84.99
76337;BME280;65157;50.082;18.178;2022-12-07T09:28:10;98821.16;;;3.37;84.49
76337;BME280;65157;50.082;18.178;2022-12-07T09:30:37;98820.27;;;3.38;84.61
76337;BME280;65157;50.082;18.178;2022-12-07T09:33:04;98820.42;;;3.39;84.25
76337;BME280;65157;50.082;18.178;2022-12-07T09:35:31;98825.00;;;3.37;83.56
76337;BME280;65157;50.082;18.178;2022-12-07T09:37:57;98821.56;;;3.35;84.01
76337;BME280;65157;50.082;18.178;2022-12-07T09:40:24;98820.03;;;3.33;84.08
76337;BME280;65157;50.082;18.178;2022-12-07T09:42:53;98820.17;;;3.34;83.86
76337;BME280;65157;50.082;18.178;2022-12-07T09:45:25;98818.43;;;3.34;83.73
76337;BME280;65157;50.082;18.178;2022-12-07T09:47:53;98818.70;;;3.38;83.89
76337;BME280;65157;50.082;18.178;2022-12-07T09:50:22;98818.12;;;3.41;83.51
76337;BME280;65157;50.082;18.178;2022-12-07T09:52:52;98812.56;;;3.40;83.14
76337;BME280;65157;50.082;18.178;2022-12-07T09:55:25;98812.20;;;3.41;83.60
76337;BME280;65157;50.082;18.178;2022-12-07T09:57:53;98814.65;;;3.41;83.13
76337;BME280;65157;50.082;18.178;2022-12-07T10:00:22;98807.67;;;3.39;83.08
76337;BME280;65157;50.082;18.178;2022-12-07T10:02:55;98807.36;;;3.38;82.67
76337;BME280;65157;50.082;18.178;2022-12-07T10:05:27;98801.78;;;3.38;82.92
76337;BME280;65157;50.082;18.178;2022-12-07T10:07:55;98796.17;;;3.39;82.76
76337;BME280;65157;50.082;18.178;2022-12-07T10:10:28;98793.97;;;3.36;82.51
76337;BME280;65157;50.082;18.178;2022-12-07T10:12:57;98792.63;;;3.34;82.60
76337;BME280;65157;50.082;18.178;2022-12-07T10:15:49;98789.50;;;3.33;82.35
76337;BME280;65157;50.082;18.178;2022-12-07T10:20:47;98780.98;;;3.31;82.46
76337;BME280;65157;50.082;18.178;2022-12-07T10:23:16;98779.58;;;3.32;82.42
76337;BME280;65157;50.082;18.178;2022-12-07T10:25:44;98776.61;;;3.32;82.65
76337;BME280;65157;50.082;18.178;2022-12-07T10:28:14;98777.48;;;3.32;82.69
76337;BME280;65157;50.082;18.178;2022-12-07T10:30:59;98773.15;;;3.30;82.71
76337;BME280;65157;50.082;18.178;2022-12-07T10:33:35;98769.15;;;3.31;82.60
76337;BME280;65157;50.082;18.178;2022-12-07T10:36:17;98766.64;;;3.34;82.60
76337;BME280;65157;50.082;18.178;2022-12-07T10:38:47;98763.27;;;3.36;82.33
76337;BME280;65157;50.082;18.178;2022-12-07T10:41:14;98757.48;;;3.38;81.97
76337;BME280;65157;50.082;18.178;2022-12-07T10:43:52;98751.98;;;3.42;82.29
76337;BME280;65157;50.082;18.178;2022-12-07T10:46:26;98750.64;;;3.48;82.52
76337;BME280;65157;50.082;18.178;2022-12-07T10:49:13;98750.98;;;3.57;82.70
76337;BME280;65157;50.082;18.178;2022-12-07T11:00:19;98747.19;;;3.77;82.50
76337;BME280;65157;50.082;18.178;2022-12-07T11:03:29;98747.35;;;3.85;82.21
76337;BME280;65157;50.082;18.178;2022-12-07T11:06:15;98745.42;;;4.14;82.61
76337;BME280;65157;50.082;18.178;2022-12-07T11:14:41;98736.22;;;5.04;81.84
76337;BME280;65157;50.082;18.178;2022-12-07T11:17:26;98736.38;;;5.23;78.34
76337;BME280;65157;50.082;18.178;2022-12-07T11:23:18;98728.34;;;5.63;78.79
76337;BME280;65157;50.082;18.178;2022-12-07T11:34:00;98721.89;;;6.12;73.63
76337;BME280;65157;50.082;18.178;2022-12-07T11:36:46;98717.55;;;6.11;72.99
76337;BME280;65157;50.082;18.178;2022-12-07T11:41:47;98716.46;;;6.12;71.40
76337;BME280;65157;50.082;18.178;2022-12-07T11:44:55;98720.27;;;6.09;71.42
76337;BME280;65157;50.082;18.178;2022-12-07T11:47:35;98718.08;;;6.00;71.72
76337;BME280;65157;50.082;18.178;2022-12-07T11:50:17;98721.36;;;6.02;71.83
76337;BME280;65157;50.082;18.178;2022-12-07T11:53:01;98723.37;;;6.05;70.27
76337;BME280;65157;50.082;18.178;2022-12-07T11:55:39;98722.77;;;6.02;70.20
76337;BME280;65157;50.082;18.178;2022-12-07T12:03:58;98723.11;;;5.80;68.28
76337;BME280;65157;50.082;18.178;2022-12-07T12:06:27;98718.52;;;5.69;68.39
76337;BME280;65157;50.082;18.178;2022-12-07T12:14:18;98719.30;;;5.83;70.29
76337;BME280;65157;50.082;18.178;2022-12-07T12:19:33;98711.30;;;5.94;67.98
76337;BME280;65157;50.082;18.178;2022-12-07T12:22:15;98705.05;;;5.92;66.12
76337;BME280;65157;50.082;18.178;2022-12-07T12:24:46;98706.69;;;5.84;66.17
76337;BME280;65157;50.082;18.178;2022-12-07T12:27:40;98710.85;;;5.74;66.28
76337;BME280;65157;50.082;18.178;2022-12-07T12:33:27;98704.69;;;5.58;68.29
76337;BME280;65157;50.082;18.178;2022-12-07T12:46:59;98707.93;;;5.21;67.46
76337;BME280;65157;50.082;18.178;2022-12-07T12:49:36;98709.37;;;5.26;67.00
76337;BME280;65157;50.082;18.178;2022-12-07T12:54:58;98708.83;;;5.77;66.83
76337;BME280;65157;50.082;18.178;2022-12-07T12:57:30;98712.29;;;5.90;67.47
76337;BME280;65157;50.082;18.178;2022-12-07T12:59:58;98714.84;;;5.75;67.69
76337;BME280;65157;50.082;18.178;2022-12-07T13:02:33;98719.52;;;5.59;68.85
76337;BME280;65157;50.082;18.178;2022-12-07T13:15:49;98716.58;;;4.81;69.25
76337;BME280;65157;50.082;18.178;2022-12-07T13:29:17;98712.52;;;4.37;70.21
76337;BME280;65157;50.082;18.178;2022-12-07T13:31:48;98713.06;;;4.37;70.47
76337;BME280;65157;50.082;18.178;2022-12-07T13:34:38;98706.30;;;4.35;70.18
76337;BME280;65157;50.082;18.178;2022-12-07T13:40:35;98716.55;;;4.24;70.48
76337;BME280;65157;50.082;18.178;2022-12-07T13:42:36;98724.39;;;4.17;70.24
76337;BME280;65157;50.082;18.178;2022-12-07T13:45:22;98726.10;;;4.11;70.03
76337;BME280;65157;50.082;18.178;2022-12-07T13:48:36;98734.81;;;4.06;71.00
76337;BME280;65157;50.082;18.178;2022-12-07T13:51:03;98740.41;;;4.05;71.20
76337;BME280;65157;50.082;18.178;2022-12-07T13:53:30;98736.45;;;4.03;70.19
76337;BME280;65157;50.082;18.178;2022-12-07T13:56:00;98742.59;;;4.02;70.81
76337;BME280;65157;50.082;18.178;2022-12-07T13:58:30;98742.33;;;3.98;70.79
76337;BME280;65157;50.082;18.178;2022-12-07T14:00:58;98750.58;;;3.96;71.07
76337;BME280;65157;50.082;18.178;2022-12-07T14:03:32;98752.45;;;3.90;71.40
76337;BME280;65157;50.082;18.178;2022-12-07T14:08:34;98766.13;;;3.73;71.07
76337;BME280;65157;50.082;18.178;2022-12-07T14:11:00;98763.16;;;3.65;71.30
76337;BME280;65157;50.082;18.178;2022-12-07T14:13:38;98762.41;;;3.60;71.46
76337;BME280;65157;50.082;18.178;2022-12-07T14:16:31;98756.33;;;3.60;71.53
76337;BME280;65157;50.082;18.178;2022-12-07T14:19:00;98759.05;;;3.62;71.96
76337;BME280;65157;50.082;18.178;2022-12-07T14:21:30;98763.35;;;3.65;71.82
76337;BME280;65157;50.082;18.178;2022-12-07T14:24:10;98767.05;;;3.63;71.59
76337;BME280;65157;50.082;18.178;2022-12-07T14:26:39;98767.23;;;3.55;72.12
76337;BME280;65157;50.082;18.178;2022-12-07T14:29:42;98768.02;;;3.51;72.82
76337;BME280;65157;50.082;18.178;2022-12-07T14:32:29;98764.07;;;3.49;72.96
76337;BME280;65157;50.082;18.178;2022-12-07T14:35:09;98767.61;;;3.46;73.36
76337;BME280;65157;50.082;18.178;2022-12-07T14:37:40;98768.22;;;3.41;73.34
76337;BME280;65157;50.082;18.178;2022-12-07T14:40:11;98769.00;;;3.37;73.23
76337;BME280;65157;50.082;18.178;2022-12-07T14:42:39;98770.94;;;3.37;73.30
76337;BME280;65157;50.082;18.178;2022-12-07T14:45:16;98769.39;;;3.36;73.30
76337;BME280;65157;50.082;18.178;2022-12-07T14:47:44;98770.10;;;3.35;73.57
76337;BME280;65157;50.082;18.178;2022-12-07T14:50:13;98774.33;;;3.33;73.86
76337;BME280;65157;50.082;18.178;2022-12-07T14:52:40;98775.38;;;3.33;73.91
76337;BME280;65157;50.082;18.178;2022-12-07T14:55:14;98776.06;;;3.33;74.14
76337;BME280;65157;50.082;18.178;2022-12-07T14:57:42;98780.06;;;3.34;74.64
76337;BME280;65157;50.082;18.178;2022-12-07T15:00:13;98782.73;;;3.32;74.20
76337;BME280;65157;50.082;18.178;2022-12-07T15:02:40;98784.73;;;3.27;74.31
76337;BME280;65157;50.082;18.178;2022-12-07T15:05:07;98787.95;;;3.24;74.61
76337;BME280;65157;50.082;18.178;2022-12-07T15:07:34;98783.65;;;3.21;74.61
76337;BME280;65157;50.082;18.178;2022-12-07T15:10:01;98785.52;;;3.23;74.84
76337;BME280;65157;50.082;18.178;2022-12-07T15:12:27;98790.69;;;3.26;74.64
76337;BME280;65157;50.082;18.178;2022-12-07T15:14:54;98792.50;;;3.23;75.11
76337;BME280;65157;50.082;18.178;2022-12-07T15:17:20;98788.19;;;3.20;75.15
76337;BME280;65157;50.082;18.178;2022-12-07T15:19:47;98785.45;;;3.18;75.27